Time;durP1;ratioP1;P1;durP2;ratioP2;P2;SDS_P1;SDS_P2;PMS_P1;PMS_P2;Temp;Humidity;BMP_temperature;BMP_pressure;BME280_temperature;BME280_humidity;BME280_pressure;Samples;Min_cycle;Max_cycle;Signal;HPM_P1;HPM_P2
2022/04/07 00:00:18;;;;;;;0.70;0.70;;;;;;;9.90;82.09;98209.53;5071050;28;20182;-70
2022/04/07 00:02:44;;;;;;;1.67;1.30;;;;;;;9.93;81.51;98200.63;5071083;28;20206;-70
2022/04/07 00:05:09;;;;;;;0.90;0.73;;;;;;;9.94;81.79;98199.47;5071075;28;20225;-70
2022/04/07 00:07:34;;;;;;;1.60;1.50;;;;;;;9.95;81.22;98197.53;5070860;28;20171;-70
2022/04/07 00:10:00;;;;;;;4.83;1.47;;;;;;;9.96;81.11;98177.28;5071267;28;20174;-70
2022/04/07 00:12:25;;;;;;;1.17;0.93;;;;;;;10.00;80.46;98172.69;5070918;28;20171;-70
2022/04/07 00:14:51;;;;;;;1.67;1.57;;;;;;;10.01;80.32;98183.25;5071022;28;20183;-69
2022/04/07 00:17:16;;;;;;;1.43;1.27;;;;;;;10.01;80.01;98169.59;5070566;28;20170;-70
2022/04/07 00:19:41;;;;;;;5.10;0.87;;;;;;;10.01;79.75;98166.88;5070821;28;20177;-69
2022/04/07 00:22:07;;;;;;;1.57;1.10;;;;;;;9.93;80.56;98150.72;5070928;28;20177;-69
2022/04/07 00:24:32;;;;;;;0.73;0.73;;;;;;;9.83;80.73;98152.09;5070722;28;20178;-71
2022/04/07 00:26:57;;;;;;;0.73;0.73;;;;;;;9.80;80.90;98153.63;5070927;28;20312;-69
2022/04/07 00:29:23;;;;;;;2.90;1.93;;;;;;;9.74;81.34;98136.00;5070594;28;20182;-69
2022/04/07 00:31:55;;;;;;;0.57;0.57;;;;;;;9.69;81.64;98138.22;5070918;28;20174;-70
2022/04/07 00:34:21;;;;;;;1.03;1.03;;;;;;;9.70;81.42;98132.44;5070776;28;20183;-70
2022/04/07 00:36:46;;;;;;;3.23;1.83;;;;;;;9.65;81.09;98127.25;5070655;28;20178;-70
2022/04/07 00:39:12;;;;;;;2.03;1.93;;;;;;;9.67;81.19;98132.34;5070442;28;20266;-69
2022/04/07 00:41:39;;;;;;;1.07;1.03;;;;;;;9.67;81.10;98137.78;5070553;28;20588;-69
2022/04/07 00:44:08;;;;;;;1.30;0.83;;;;;;;9.68;81.06;98129.25;5070569;28;20179;-69
2022/04/07 00:46:34;;;;;;;4.20;2.10;;;;;;;9.65;81.27;98110.09;5070142;28;20569;-70
2022/04/07 00:48:59;;;;;;;1.33;1.23;;;;;;;9.69;81.07;98119.13;5068895;28;20220;-71
2022/04/07 00:51:25;;;;;;;2.57;2.37;;;;;;;9.69;80.89;98108.22;5067447;28;20191;-70
2022/04/07 00:53:51;;;;;;;1.27;1.17;;;;;;;9.72;80.36;98113.75;5072201;28;20190;-70
2022/04/07 00:56:16;;;;;;;0.90;0.87;;;;;;;9.74;80.66;98097.03;5074909;28;20178;-69
2022/04/07 00:58:42;;;;;;;0.60;0.60;;;;;;;9.72;80.63;98093.91;5074823;28;20180;-70
2022/04/07 01:01:08;;;;;;;1.90;1.67;;;;;;;9.69;81.08;98094.59;5074979;28;20181;-69
2022/04/07 01:03:34;;;;;;;0.80;0.70;;;;;;;9.65;81.64;98083.63;5075023;28;20177;-69
2022/04/07 01:06:01;;;;;;;2.47;2.20;;;;;;;9.63;81.35;98080.50;5074801;28;20561;-70
2022/04/07 01:08:27;;;;;;;2.20;1.97;;;;;;;9.65;81.51;98080.13;5074392;28;20526;-70
2022/04/07 01:10:52;;;;;;;2.90;2.47;;;;;;;9.67;81.50;98080.53;5073368;28;20231;-69
2022/04/07 01:13:19;;;;;;;5.43;1.60;;;;;;;9.69;81.58;98091.88;5074565;28;20648;-69
2022/04/07 01:15:44;;;;;;;1.03;1.00;;;;;;;9.66;82.81;98087.94;5074533;28;20209;-70
2022/04/07 01:18:09;;;;;;;2.80;2.40;;;;;;;9.51;86.29;98100.53;5074541;28;20557;-70
2022/04/07 01:20:35;;;;;;;3.17;2.80;;;;;;;9.34;89.28;98097.47;5074717;28;20198;-70
2022/04/07 01:23:01;;;;;;;1.63;1.53;;;;;;;9.17;92.35;98094.06;5074430;28;20671;-70
2022/04/07 01:25:27;;;;;;;1.27;1.17;;;;;;;9.00;95.12;98085.53;5074321;28;20340;-71
2022/04/07 01:27:54;;;;;;;1.57;1.47;;;;;;;8.89;96.58;98077.94;5074241;28;20175;-69
2022/04/07 01:30:19;;;;;;;1.00;1.00;;;;;;;8.79;98.61;98089.38;5074170;28;20185;-70
2022/04/07 01:32:52;;;;;;;1.57;1.20;;;;;;;8.70;99.99;98077.94;5074124;28;20634;-70
2022/04/07 01:35:17;;;;;;;6.57;1.57;;;;;;;8.64;100.00;98074.69;5073982;28;20240;-70
2022/04/07 01:37:46;;;;;;;0.80;0.80;;;;;;;8.62;100.00;98076.97;5073980;28;20182;-70
2022/04/07 01:40:15;;;;;;;2.13;1.93;;;;;;;8.65;100.00;98070.03;5076978;28;20190;-70
2022/04/07 01:42:42;;;;;;;2.10;2.00;;;;;;;8.61;100.00;98066.44;5077283;28;20653;-70
2022/04/07 01:45:10;;;;;;;2.73;2.07;;;;;;;8.58;100.00;98056.28;5074935;28;20749;-70
2022/04/07 01:47:37;;;;;;;4.60;3.00;;;;;;;8.57;100.00;98058.22;5074234;28;20262;-69
2022/04/07 01:50:08;;;;;;;3.03;2.20;;;;;;;8.57;100.00;98052.78;5074177;28;20183;-70
2022/04/07 01:52:36;;;;;;;1.97;1.83;;;;;;;8.54;100.00;98052.72;5074181;28;20269;-70
2022/04/07 01:55:02;;;;;;;2.23;2.03;;;;;;;8.54;100.00;98050.00;5074120;28;20265;-70
2022/04/07 01:57:28;;;;;;;0.87;0.87;;;;;;;8.53;100.00;98054.59;5073538;28;20183;-70
2022/04/07 01:59:54;;;;;;;2.27;2.07;;;;;;;8.51;100.00;98037.84;5074175;28;20170;-70
2022/04/07 02:02:23;;;;;;;2.83;2.50;;;;;;;8.46;100.00;98034.63;5074277;28;20175;-70
2022/04/07 02:04:53;;;;;;;4.10;2.93;;;;;;;8.44;100.00;98024.13;5073638;28;20205;-69
2022/04/07 02:07:18;;;;;;;1.67;1.20;;;;;;;8.43;100.00;98033.44;5073468;28;20166;-70
2022/04/07 02:09:44;;;;;;;3.17;2.87;;;;;;;8.44;100.00;98028.78;5073910;28;20182;-70
2022/04/07 02:12:09;;;;;;;3.17;2.33;;;;;;;8.43;100.00;98038.06;5073948;28;20174;-70
2022/04/07 02:14:35;;;;;;;0.63;0.63;;;;;;;8.43;100.00;98029.91;5074099;28;20170;-70
2022/04/07 02:17:01;;;;;;;2.40;2.20;;;;;;;8.44;100.00;98021.41;5073529;28;20167;-70
2022/04/07 02:19:26;;;;;;;0.73;0.57;;;;;;;8.46;100.00;98021.03;5073656;28;20170;-70
2022/04/07 02:21:52;;;;;;;1.27;1.13;;;;;;;8.45;100.00;98014.03;5073339;28;20186;-70
2022/04/07 02:24:17;;;;;;;0.57;0.57;;;;;;;8.50;100.00;98006.34;5073290;28;20216;-70
2022/04/07 02:26:42;;;;;;;1.13;1.10;;;;;;;8.49;100.00;98010.22;5073447;28;20202;-70
2022/04/07 02:29:08;;;;;;;0.40;0.40;;;;;;;8.50;100.00;98011.00;5073731;28;20173;-70
2022/04/07 02:31:33;;;;;;;2.53;0.90;;;;;;;8.55;100.00;98008.81;5073421;28;20170;-69
2022/04/07 02:33:59;;;;;;;0.70;0.70;;;;;;;8.56;100.00;98012.31;5073507;28;20699;-70
2022/04/07 02:36:24;;;;;;;0.43;0.43;;;;;;;8.44;100.00;97998.84;5071998;28;20630;-70
2022/04/07 02:38:49;;;;;;;0.70;0.70;;;;;;;8.32;100.00;97994.28;5073029;28;20224;-69
2022/04/07 02:41:15;;;;;;;0.27;0.17;;;;;;;8.22;100.00;97986.69;5073429;28;20178;-70
2022/04/07 02:43:40;;;;;;;0.37;0.37;;;;;;;8.13;100.00;97964.34;5073213;28;20245;-71
2022/04/07 02:46:05;;;;;;;0.20;0.20;;;;;;;8.10;100.00;97982.16;5072733;28;20734;-71
2022/04/07 02:48:30;;;;;;;0.53;0.33;;;;;;;8.02;100.00;97969.56;5072757;28;20181;-70
2022/04/07 02:50:56;;;;;;;0.40;0.40;;;;;;;8.01;100.00;97948.94;5072997;28;20569;-71
2022/04/07 02:53:21;;;;;;;0.37;0.37;;;;;;;8.00;100.00;97950.88;5073229;28;20579;-70
2022/04/07 02:55:46;;;;;;;0.33;0.20;;;;;;;8.01;100.00;97935.34;5073051;28;20187;-70
2022/04/07 02:58:12;;;;;;;1.60;0.70;;;;;;;7.98;100.00;97922.47;5072691;28;20178;-70
2022/04/07 03:00:37;;;;;;;0.70;0.70;;;;;;;7.98;100.00;97920.53;5073073;28;20235;-70
2022/04/07 03:03:02;;;;;;;0.53;0.20;;;;;;;8.01;100.00;97925.25;5072831;28;20227;-70
2022/04/07 03:05:28;;;;;;;0.67;0.47;;;;;;;8.01;100.00;97925.25;5072503;28;20214;-70
2022/04/07 03:07:53;;;;;;;0.60;0.50;;;;;;;8.10;100.00;97933.22;5072667;28;20214;-69
2022/04/07 03:10:18;;;;;;;2.00;0.60;;;;;;;8.23;99.87;97920.25;5072441;28;20258;-70
2022/04/07 03:12:44;;;;;;;0.87;0.80;;;;;;;8.23;99.58;97915.59;5072587;28;20178;-70
2022/04/07 03:15:09;;;;;;;0.20;0.20;;;;;;;8.28;99.09;97914.53;5072400;28;20626;-70
2022/04/07 03:17:35;;;;;;;0.10;0.10;;;;;;;8.32;98.24;97901.78;5071497;28;20252;-70
2022/04/07 03:20:01;;;;;;;0.10;0.10;;;;;;;8.34;98.06;97900.31;5072582;28;20179;-70
2022/04/07 03:22:26;;;;;;;0.40;0.30;;;;;;;8.38;97.03;97891.44;5072382;28;20431;-69
2022/04/07 03:24:52;;;;;;;0.30;0.30;;;;;;;8.35;96.92;97880.13;5072430;28;20183;-69
2022/04/07 03:27:17;;;;;;;0.27;0.10;;;;;;;8.37;96.86;97870.81;5072096;28;20637;-70
2022/04/07 03:29:43;;;;;;;0.97;0.50;;;;;;;8.42;95.33;97874.03;5072270;28;20185;-69
2022/04/07 03:32:09;;;;;;;0.33;0.33;;;;;;;8.44;95.28;97885.34;5072287;28;20175;-70
2022/04/07 03:34:34;;;;;;;0.30;0.30;;;;;;;8.51;93.49;97876.53;5070929;28;20182;-70
2022/04/07 03:37:00;;;;;;;0.13;0.13;;;;;;;8.52;93.43;97878.88;5071643;28;20179;-71
2022/04/07 03:39:25;;;;;;;0.57;0.57;;;;;;;8.55;92.37;97867.28;5071775;28;20637;-70
2022/04/07 03:41:51;;;;;;;0.20;0.20;;;;;;;8.56;92.21;97846.31;5071959;28;20199;-70
2022/04/07 03:44:17;;;;;;;3.03;0.93;;;;;;;8.56;92.01;97847.09;5072011;28;20835;-69
2022/04/07 03:46:42;;;;;;;1.33;0.40;;;;;;;8.61;91.29;97854.94;5071632;28;20251;-70
2022/04/07 03:49:07;;;;;;;0.87;0.83;;;;;;;8.58;90.77;97838.56;5071472;28;20182;-69
2022/04/07 03:51:33;;;;;;;1.40;0.83;;;;;;;8.63;90.28;97838.25;5071286;28;20174;-70
2022/04/07 03:53:58;;;;;;;1.33;0.60;;;;;;;8.61;90.80;97838.63;5071166;28;20249;-69
2022/04/07 03:56:23;;;;;;;0.83;0.37;;;;;;;8.63;90.24;97841.75;5071229;28;20187;-69
2022/04/07 03:58:49;;;;;;;1.30;0.67;;;;;;;8.71;89.59;97834.53;5071029;28;20527;-70
2022/04/07 04:01:14;;;;;;;3.43;0.30;;;;;;;8.80;88.10;97839.72;5071134;28;20185;-69
2022/04/07 04:03:39;;;;;;;0.33;0.33;;;;;;;8.79;88.12;97828.03;5071516;28;20257;-70
2022/04/07 04:06:05;;;;;;;1.40;0.30;;;;;;;8.78;88.44;97818.28;5070906;28;20791;-70
2022/04/07 04:08:31;;;;;;;1.13;0.40;;;;;;;8.81;88.21;97817.56;5070883;28;20591;-69
2022/04/07 04:10:56;;;;;;;5.40;0.53;;;;;;;8.85;87.88;97804.81;5070889;28;20676;-70
2022/04/07 04:13:22;;;;;;;0.50;0.50;;;;;;;8.93;86.46;97790.16;5070925;28;20598;-70
2022/04/07 04:15:47;;;;;;;0.30;0.30;;;;;;;8.99;86.50;97790.63;5071008;28;20179;-71
2022/04/07 04:18:13;;;;;;;1.20;0.60;;;;;;;9.02;86.13;97797.28;5070346;28;20167;-69
2022/04/07 04:20:39;;;;;;;0.40;0.20;;;;;;;8.98;85.83;97793.72;5070602;28;20167;-70
2022/04/07 04:23:04;;;;;;;6.60;1.10;;;;;;;8.97;85.74;97789.41;5070456;28;20177;-69
2022/04/07 04:25:30;;;;;;;0.13;0.13;;;;;;;8.96;85.50;97794.06;5070362;28;20202;-70
2022/04/07 04:27:55;;;;;;;0.63;0.53;;;;;;;9.05;84.60;97778.28;5068957;28;20174;-70
2022/04/07 04:30:21;;;;;;;3.80;0.53;;;;;;;9.02;84.76;97786.41;5070098;28;20175;-70
2022/04/07 04:32:46;;;;;;;2.10;0.93;;;;;;;9.04;84.94;97790.31;5070392;28;20171;-70
2022/04/07 04:35:12;;;;;;;0.93;0.70;;;;;;;9.12;84.32;97777.59;5070120;28;20257;-70
2022/04/07 04:37:38;;;;;;;1.10;1.03;;;;;;;9.11;84.35;97770.56;5070060;28;20245;-70
2022/04/07 04:40:04;;;;;;;0.50;0.50;;;;;;;9.15;84.03;97776.88;5070097;28;20188;-70
2022/04/07 04:42:29;;;;;;;6.13;0.70;;;;;;;9.16;84.07;97776.50;5070379;28;20178;-70
2022/04/07 04:44:55;;;;;;;0.30;0.30;;;;;;;9.18;83.75;97767.94;5070180;28;20178;-70
2022/04/07 04:47:20;;;;;;;0.33;0.27;;;;;;;9.21;83.26;97765.28;5066791;28;20381;-69
2022/04/07 04:49:45;;;;;;;0.80;0.53;;;;;;;9.21;83.24;97759.03;5062259;28;20187;-70
2022/04/07 04:52:12;;;;;;;0.40;0.23;;;;;;;9.22;83.33;97758.66;5070604;28;20188;-70
2022/04/07 04:54:38;;;;;;;0.40;0.40;;;;;;;9.18;83.53;97746.16;5070656;28;20179;-70
2022/04/07 04:57:04;;;;;;;0.30;0.10;;;;;;;9.19;83.75;97739.56;5069036;28;20240;-71
2022/04/07 04:59:29;;;;;;;1.40;0.43;;;;;;;9.24;83.04;97731.84;5070617;28;20552;-70
2022/04/07 05:01:54;;;;;;;0.40;0.40;;;;;;;9.25;83.45;97754.41;5070773;28;20174;-69
2022/04/07 05:04:20;;;;;;;0.13;0.00;;;;;;;9.27;83.27;97749.41;5070791;28;20736;-71
2022/04/07 05:06:45;;;;;;;0.53;0.50;;;;;;;9.25;83.78;97747.03;5070429;28;20203;-71
2022/04/07 05:09:10;;;;;;;0.17;0.17;;;;;;;9.24;83.96;97745.47;5070691;28;20279;-69
2022/04/07 05:11:36;;;;;;;0.63;0.50;;;;;;;9.30;82.93;97750.59;5070339;28;20202;-70
2022/04/07 05:14:01;;;;;;;2.13;0.50;;;;;;;9.30;82.75;97732.31;5070559;28;20174;-70
2022/04/07 05:16:26;;;;;;;0.23;0.23;;;;;;;9.31;82.62;97727.66;5070195;28;20218;-71
2022/04/07 05:18:52;;;;;;;0.33;0.20;;;;;;;9.41;81.70;97722.34;5070315;28;20170;-69
2022/04/07 05:21:17;;;;;;;0.93;0.20;;;;;;;9.37;82.73;97718.78;5070342;28;20625;-70
2022/04/07 05:23:43;;;;;;;19.23;1.23;;;;;;;9.40;81.61;97704.44;5070368;28;20534;-69
2022/04/07 05:26:08;;;;;;;0.70;0.60;;;;;;;9.45;81.08;97706.81;5070210;28;20297;-70
2022/04/07 05:28:34;;;;;;;1.07;0.67;;;;;;;9.45;81.32;97697.84;5070152;28;20599;-70
2022/04/07 05:30:59;;;;;;;0.40;0.40;;;;;;;9.44;81.10;97699.81;5070232;28;20198;-70
2022/04/07 05:33:25;;;;;;;0.67;0.30;;;;;;;9.47;80.92;97701.78;5070198;28;20187;-69
2022/04/07 05:35:51;;;;;;;0.23;0.23;;;;;;;9.48;81.43;97695.16;5070175;28;20202;-69
2022/04/07 05:38:16;;;;;;;1.33;0.50;;;;;;;9.44;82.13;97696.28;5070072;28;20187;-70
2022/04/07 05:40:42;;;;;;;0.23;0.17;;;;;;;9.47;81.52;97693.59;5070803;28;20185;-70
2022/04/07 05:43:08;;;;;;;2.93;0.30;;;;;;;9.59;80.59;97683.63;5073767;28;20526;-70
2022/04/07 05:45:34;;;;;;;0.37;0.37;;;;;;;9.61;80.96;97676.63;5073971;28;20202;-70
2022/04/07 05:48:00;;;;;;;0.77;0.10;;;;;;;9.68;80.53;97665.00;5073620;28;20175;-70
2022/04/07 05:50:25;;;;;;;0.30;0.30;;;;;;;9.70;80.37;97652.59;5073724;28;20183;-69
2022/04/07 05:52:50;;;;;;;0.83;0.40;;;;;;;9.71;80.56;97665.06;5073609;28;20174;-69
2022/04/07 05:55:16;;;;;;;0.53;0.50;;;;;;;9.72;80.57;97663.91;5073886;28;20312;-69
2022/04/07 05:57:41;;;;;;;0.47;0.40;;;;;;;9.69;80.62;97647.50;5073219;28;20181;-71
2022/04/07 06:00:12;;;;;;;0.00;0.00;;;;;;;9.70;80.60;97654.53;5073460;28;20537;-70
2022/04/07 06:02:38;;;;;;;0.73;0.73;;;;;;;9.73;80.72;97643.66;5073698;28;20171;-69
2022/04/07 06:05:08;;;;;;;0.00;0.00;;;;;;;9.86;79.81;97632.50;5073433;28;20193;-69
2022/04/07 06:07:34;;;;;;;0.10;0.10;;;;;;;9.96;79.99;97640.75;5073522;28;20271;-70
2022/04/07 06:09:59;;;;;;;0.47;0.47;;;;;;;10.03;80.28;97638.09;5073244;28;20633;-69
2022/04/07 06:12:25;;;;;;;0.17;0.17;;;;;;;10.04;79.03;97631.47;5073368;28;20262;-70
2022/04/07 06:14:50;;;;;;;0.10;0.10;;;;;;;10.06;79.63;97634.59;5073312;28;20174;-70
2022/04/07 06:17:15;;;;;;;0.60;0.40;;;;;;;10.08;79.65;97621.38;5073047;28;20179;-70
2022/04/07 06:19:41;;;;;;;8.83;0.57;;;;;;;10.09;79.11;97603.84;5073161;28;20177;-71
2022/04/07 06:22:07;;;;;;;0.10;0.10;;;;;;;10.16;78.29;97610.53;5073184;28;20201;-71
2022/04/07 06:24:35;;;;;;;3.90;0.60;;;;;;;10.27;78.87;97595.84;5072990;28;20223;-72
2022/04/07 06:27:01;;;;;;;1.30;0.40;;;;;;;10.41;77.90;97595.13;5072606;28;20795;-70
2022/04/07 06:29:26;;;;;;;0.20;0.10;;;;;;;10.43;77.61;97587.38;5073202;28;20181;-70
2022/04/07 06:31:52;;;;;;;0.70;0.70;;;;;;;10.45;76.57;97570.59;5072932;28;20179;-70
2022/04/07 06:34:18;;;;;;;2.67;0.80;;;;;;;10.54;76.45;97574.56;5072909;28;20181;-71
2022/04/07 06:36:43;;;;;;;0.53;0.23;;;;;;;10.60;76.26;97567.56;5072549;28;20179;-70
2022/04/07 06:39:08;;;;;;;0.30;0.30;;;;;;;10.47;75.99;97558.16;5072011;28;20197;-70
2022/04/07 06:41:34;;;;;;;0.20;0.13;;;;;;;10.41;75.95;97540.53;5072297;28;20181;-70
2022/04/07 06:43:59;;;;;;;1.07;0.50;;;;;;;10.54;76.73;97549.19;5072199;28;20178;-70
2022/04/07 06:46:25;;;;;;;0.40;0.40;;;;;;;10.61;76.41;97539.13;5071927;28;20252;-70
2022/04/07 06:48:50;;;;;;;0.60;0.50;;;;;;;10.73;76.35;97516.16;5071896;28;20174;-70
2022/04/07 06:51:16;;;;;;;0.77;0.10;;;;;;;10.68;76.15;97511.81;5071916;28;20205;-70
2022/04/07 06:53:41;;;;;;;0.10;0.10;;;;;;;10.57;76.16;97500.09;5071943;28;20191;-70
2022/04/07 06:56:08;;;;;;;0.20;0.20;;;;;;;10.41;76.36;97502.34;5071996;28;20181;-70
2022/04/07 06:58:33;;;;;;;5.80;0.30;;;;;;;10.33;77.58;97490.63;5066930;28;20183;-71
2022/04/07 07:00:59;;;;;;;1.10;0.63;;;;;;;10.22;77.51;97489.78;5071872;28;20181;-71
2022/04/07 07:03:24;;;;;;;0.43;0.20;;;;;;;10.23;77.80;97482.38;5072323;28;20178;-70
2022/04/07 07:05:49;;;;;;;0.30;0.13;;;;;;;10.20;78.05;97455.81;5072167;28;20214;-72
2022/04/07 07:08:14;;;;;;;1.37;0.50;;;;;;;10.18;79.22;97458.16;5072176;28;20212;-71
2022/04/07 07:10:40;;;;;;;0.23;0.20;;;;;;;10.20;79.46;97447.63;5072071;28;20626;-71
2022/04/07 07:13:06;;;;;;;0.67;0.40;;;;;;;10.13;78.93;97437.47;5072255;28;20170;-71
2022/04/07 07:15:31;;;;;;;0.10;0.10;;;;;;;10.14;78.94;97431.66;5071993;28;20529;-71
2022/04/07 07:17:56;;;;;;;0.73;0.30;;;;;;;10.14;79.51;97449.97;5072518;28;20174;-70
2022/04/07 07:20:22;;;;;;;0.80;0.30;;;;;;;10.20;79.41;97456.59;5072038;28;20584;-70
2022/04/07 07:22:47;;;;;;;1.80;0.20;;;;;;;10.21;79.54;97441.03;5072013;28;20178;-70
2022/04/07 07:25:13;;;;;;;0.40;0.20;;;;;;;10.24;79.93;97429.38;5071861;28;20203;-70
2022/04/07 07:27:43;;;;;;;0.37;0.37;;;;;;;10.28;79.68;97413.81;5071889;28;20269;-70
2022/04/07 07:30:10;;;;;;;0.07;0.07;;;;;;;10.34;79.95;97417.72;5071792;28;20695;-65
2022/04/07 07:32:36;;;;;;;0.13;0.13;;;;;;;10.36;80.02;97409.94;5070508;28;20178;-70
2022/04/07 07:35:03;;;;;;;0.00;0.00;;;;;;;10.38;79.87;97397.47;5072050;28;20257;-71
2022/04/07 07:37:29;;;;;;;0.37;0.30;;;;;;;10.41;80.71;97390.44;5071397;28;20210;-70
2022/04/07 07:39:54;;;;;;;0.20;0.20;;;;;;;10.47;80.87;97399.84;5071451;28;20217;-71
2022/04/07 07:42:20;;;;;;;0.23;0.23;;;;;;;10.52;80.16;97393.22;5071679;28;20178;-71
2022/04/07 07:44:45;;;;;;;0.83;0.30;;;;;;;10.53;79.88;97386.59;5071433;28;20179;-70
2022/04/07 07:47:10;;;;;;;0.00;0.00;;;;;;;10.52;79.68;97372.16;5071430;28;20274;-70
2022/04/07 07:49:35;;;;;;;0.10;0.10;;;;;;;10.55;80.42;97373.31;5071649;28;20174;-70
2022/04/07 07:52:01;;;;;;;0.00;0.00;;;;;;;10.56;80.59;97358.50;5071421;28;20638;-71
2022/04/07 07:54:26;;;;;;;0.30;0.20;;;;;;;10.56;80.86;97332.03;5071460;28;20174;-71
2022/04/07 07:56:52;;;;;;;0.80;0.30;;;;;;;10.62;79.89;97335.91;5071235;28;20682;-71
2022/04/07 07:59:20;;;;;;;0.10;0.10;;;;;;;10.69;80.02;97325.00;5071211;28;20907;-72
2022/04/07 08:01:48;;;;;;;0.10;0.10;;;;;;;10.73;80.19;97314.88;5070986;28;20170;-72
2022/04/07 08:04:15;;;;;;;0.00;0.00;;;;;;;10.81;79.48;97309.41;5070687;28;20185;-71
2022/04/07 08:06:41;;;;;;;0.00;0.00;;;;;;;10.87;79.62;97305.91;5071125;28;20198;-70
2022/04/07 08:09:06;;;;;;;0.40;0.27;;;;;;;10.94;78.73;97291.47;5071082;28;20220;-70
2022/04/07 08:11:31;;;;;;;0.10;0.10;;;;;;;11.05;78.76;97292.25;5071156;28;20170;-70
2022/04/07 08:13:57;;;;;;;0.47;0.47;;;;;;;11.20;77.84;97304.72;5069740;28;20280;-71
2022/04/07 08:16:23;;;;;;;0.17;0.10;;;;;;;11.30;77.60;97282.06;5070976;28;20179;-70
2022/04/07 08:18:48;;;;;;;2.93;0.80;;;;;;;11.42;77.21;97269.13;5070913;28;20517;-72
2022/04/07 08:21:14;;;;;;;0.53;0.50;;;;;;;11.45;77.47;97282.03;5069709;28;20181;-72
2022/04/07 08:23:39;;;;;;;8.60;1.17;;;;;;;11.38;76.79;97280.06;5070943;28;20182;-70
2022/04/07 08:26:04;;;;;;;0.60;0.30;;;;;;;11.42;75.93;97280.06;5070945;28;20281;-71
2022/04/07 08:28:30;;;;;;;0.10;0.10;;;;;;;11.48;76.70;97275.75;5070563;28;20581;-71
2022/04/07 08:30:55;;;;;;;0.40;0.40;;;;;;;11.46;76.98;97261.72;5070900;28;20633;-71
2022/04/07 08:33:21;;;;;;;0.00;0.00;;;;;;;11.39;77.31;97267.19;5070751;28;20269;-70
2022/04/07 08:35:46;;;;;;;0.00;0.00;;;;;;;11.32;77.91;97263.31;5071360;28;20236;-71
2022/04/07 08:38:15;;;;;;;0.20;0.20;;;;;;;11.28;78.40;97250.81;5070493;28;20269;-70
2022/04/07 08:40:41;;;;;;;0.43;0.40;;;;;;;11.22;78.61;97246.94;5070576;28;20248;-71
2022/04/07 08:43:08;;;;;;;0.77;0.67;;;;;;;11.11;78.67;97246.94;5070439;28;20257;-70
2022/04/07 08:45:36;;;;;;;0.20;0.10;;;;;;;11.09;79.81;97262.97;5070092;28;20198;-70
2022/04/07 08:48:02;;;;;;;0.10;0.10;;;;;;;11.02;79.75;97195.47;5070139;28;20633;-71
2022/04/07 08:50:28;;;;;;;0.33;0.13;;;;;;;10.97;79.93;97230.56;5070035;28;20182;-70
2022/04/07 08:52:54;;;;;;;0.23;0.10;;;;;;;10.94;80.47;97229.41;5070077;28;20189;-72
2022/04/07 08:55:19;;;;;;;0.00;0.00;;;;;;;10.83;80.86;97245.03;5070743;28;20201;-70
2022/04/07 08:57:45;;;;;;;0.20;0.20;;;;;;;10.72;82.24;97217.75;5070379;28;20171;-71
2022/04/07 09:00:11;;;;;;;0.77;0.43;;;;;;;10.57;82.70;97208.00;5069471;28;20548;-71
2022/04/07 09:02:37;;;;;;;0.63;0.60;;;;;;;10.52;84.10;97213.84;5069612;28;20232;-71
2022/04/07 09:05:09;;;;;;;0.10;0.10;;;;;;;10.41;84.99;97213.06;5067658;28;20175;-74
2022/04/07 09:07:35;;;;;;;0.73;0.40;;;;;;;10.33;87.37;97195.13;5061752;28;20236;-71
2022/04/07 09:10:03;;;;;;;0.30;0.30;;;;;;;10.13;87.68;97200.16;5061983;28;20263;-72
2022/04/07 09:12:29;;;;;;;0.27;0.13;;;;;;;10.06;88.59;97200.91;5070012;28;20236;-72
2022/04/07 09:14:59;;;;;;;1.17;0.40;;;;;;;10.01;90.45;97186.91;5070322;28;20174;-71
2022/04/07 09:17:25;;;;;;;0.00;0.00;;;;;;;9.96;92.05;97174.41;5069448;28;20296;-72
2022/04/07 09:19:51;;;;;;;0.20;0.10;;;;;;;9.91;92.15;97154.94;5071675;28;20173;-72
2022/04/07 09:22:17;;;;;;;0.10;0.10;;;;;;;9.86;92.35;97155.31;5072906;28;20186;-72
2022/04/07 09:24:43;;;;;;;1.03;0.50;;;;;;;9.84;93.78;97144.81;5074260;28;20193;-72
2022/04/07 09:27:10;;;;;;;0.33;0.30;;;;;;;9.79;94.41;97132.31;5073587;28;20202;-72
2022/04/07 09:29:41;;;;;;;0.10;0.10;;;;;;;9.80;96.83;97136.59;5074137;28;20181;-71
2022/04/07 09:32:18;;;;;;;0.10;0.10;;;;;;;9.83;96.44;97138.53;5074188;28;20167;-72
2022/04/07 09:34:44;;;;;;;0.73;0.60;;;;;;;9.77;96.69;97139.31;5074077;28;20184;-70
2022/04/07 09:37:09;;;;;;;0.60;0.53;;;;;;;9.73;96.35;97127.63;5073764;28;20356;-71
2022/04/07 09:39:39;;;;;;;0.17;0.00;;;;;;;9.65;97.60;97124.09;5073666;28;20281;-72
2022/04/07 09:42:22;;;;;;;0.10;0.10;;;;;;;9.57;100.00;97114.38;5073889;28;20162;-71
2022/04/07 09:44:53;;;;;;;0.00;0.00;;;;;;;9.46;100.00;97116.28;5053833;28;20172;-71
2022/04/07 09:47:20;;;;;;;0.83;0.40;;;;;;;9.39;100.00;97103.41;5052433;28;20294;-71
2022/04/07 09:49:47;;;;;;;0.40;0.40;;;;;;;9.30;100.00;97088.63;5052720;28;20544;-71
2022/04/07 09:52:14;;;;;;;0.43;0.20;;;;;;;9.26;100.00;97066.81;5054567;28;20181;-71
2022/04/07 09:54:41;;;;;;;0.07;0.07;;;;;;;9.35;100.00;97064.50;5054901;28;20195;-72
2022/04/07 09:57:09;;;;;;;0.40;0.40;;;;;;;9.43;100.00;97033.38;5053691;28;20167;-71
2022/04/07 09:59:37;;;;;;;0.43;0.40;;;;;;;9.61;100.00;97030.66;5053796;28;20182;-72
2022/04/07 10:02:04;;;;;;;0.10;0.10;;;;;;;9.75;100.00;97017.03;5053848;28;20171;-71
2022/04/07 10:04:30;;;;;;;0.20;0.17;;;;;;;9.85;100.00;96990.94;5053573;28;20233;-71
2022/04/07 10:06:57;;;;;;;0.43;0.20;;;;;;;9.99;100.00;96981.97;5053605;28;20227;-71
2022/04/07 10:09:23;;;;;;;0.17;0.10;;;;;;;10.01;100.00;96991.31;5053892;28;20476;-71
2022/04/07 10:11:50;;;;;;;0.03;0.03;;;;;;;10.10;100.00;96997.13;5053703;28;20182;-71
2022/04/07 10:14:21;;;;;;;0.00;0.00;;;;;;;10.14;100.00;96970.63;5053540;28;20164;-71
2022/04/07 10:16:47;;;;;;;0.00;0.00;;;;;;;10.13;100.00;96966.34;5052181;28;20228;-71
2022/04/07 10:19:21;;;;;;;0.00;0.00;;;;;;;10.06;100.00;96965.59;5053312;28;20173;-72
2022/04/07 10:21:53;;;;;;;0.20;0.10;;;;;;;9.95;100.00;96954.69;5085444;28;20244;-72
2022/04/07 10:24:24;;;;;;;0.17;0.17;;;;;;;9.90;100.00;96937.97;5053462;28;20190;-72
2022/04/07 10:26:50;;;;;;;0.00;0.00;;;;;;;9.73;100.00;96932.16;5052668;28;20591;-72
2022/04/07 10:29:23;;;;;;;0.00;0.00;;;;;;;9.62;100.00;96912.31;5052918;28;20664;-72
2022/04/07 10:32:13;;;;;;;0.00;0.00;;;;;;;9.65;100.00;96918.91;5053230;28;20250;-71
2022/04/07 10:34:42;;;;;;;0.00;0.00;;;;;;;9.72;100.00;96910.75;5068222;28;20178;-71
2022/04/07 10:37:09;;;;;;;0.10;0.10;;;;;;;9.88;100.00;96929.41;5073259;28;20178;-71
2022/04/07 10:39:35;;;;;;;0.20;0.20;;;;;;;9.99;100.00;96881.84;5072834;28;20186;-71
2022/04/07 10:42:01;;;;;;;0.33;0.30;;;;;;;10.13;100.00;96868.16;5072962;28;20622;-72
2022/04/07 10:44:28;;;;;;;0.57;0.23;;;;;;;10.20;100.00;96855.66;5073254;28;20167;-70
2022/04/07 10:47:08;;;;;;;0.10;0.10;;;;;;;10.15;100.00;96881.41;5072933;28;20205;-71
2022/04/07 10:49:34;;;;;;;0.00;0.00;;;;;;;10.14;100.00;96880.63;5072926;28;20174;-72
2022/04/07 10:52:04;;;;;;;0.10;0.10;;;;;;;10.16;100.00;96885.69;5073142;28;20685;-72
2022/04/07 10:54:30;;;;;;;0.00;0.00;;;;;;;10.21;100.00;96892.69;5072863;28;20179;-72
2022/04/07 10:56:57;;;;;;;0.10;0.10;;;;;;;10.19;100.00;96949.59;5072613;28;20177;-72
2022/04/07 10:59:31;;;;;;;0.40;0.20;;;;;;;10.12;100.00;97147.53;5072746;28;20214;-71
2022/04/07 11:02:12;;;;;;;1.17;0.17;;;;;;;6.53;96.64;97197.16;5071123;28;20166;-71
2022/04/07 11:04:39;;;;;;;0.20;0.10;;;;;;;5.03;98.46;97144.16;5072507;28;20249;-71
2022/04/07 11:07:04;;;;;;;0.50;0.10;;;;;;;4.59;100.00;97098.44;5072345;28;20199;-71
2022/04/07 11:09:58;;;;;;;0.40;0.10;;;;;;;4.42;100.00;97101.53;5071697;28;20177;-69
2022/04/07 11:12:34;;;;;;;0.00;0.00;;;;;;;4.33;100.00;97084.72;5072139;28;20316;-70
2022/04/07 11:15:02;;;;;;;0.30;0.23;;;;;;;4.33;100.00;97080.09;5072341;28;20158;-70
2022/04/07 11:17:46;;;;;;;0.00;0.00;;;;;;;4.29;100.00;97127.09;5072292;28;20638;-73
2022/04/07 11:20:26;;;;;;;0.00;0.00;;;;;;;4.34;100.00;97154.66;5072171;28;20151;-71
2022/04/07 11:23:06;;;;;;;0.00;0.00;;;;;;;4.20;100.00;97138.13;5070109;28;20534;-70
2022/04/07 11:25:31;;;;;;;0.00;0.00;;;;;;;4.22;100.00;97118.84;5069862;28;20500;-71
2022/04/07 11:28:10;;;;;;;0.17;0.10;;;;;;;4.27;100.00;97100.44;5071908;28;20163;-71
2022/04/07 11:30:56;;;;;;;1.30;0.30;;;;;;;4.33;100.00;97085.50;5071486;28;20232;-71
2022/04/07 11:33:25;;;;;;;0.00;0.00;;;;;;;4.38;100.00;97093.38;5071542;28;20228;-70